KCEU/CEU METAR and TAF weather

Enter ICAO airport designator
Station Type Date Time Source
KCEU METAR 2018/10/16 21:42 UTC NOAA

KCEU 162142Z AUTO 30004KT 4SM -RA BR FEW022 SCT032 OVC044 21/20 A3011 RMK AO2 RAB21 P0009 T02060200


Station Type Date Time Source
KCEU Decoded METAR 2018/10/16 21:42 UTC NOAA

CLEMSON-OCONEE COUNTY AIRPORT , SC, United States (KCEU) 34-40N 082-53W 268M
Oct 16, 2018 - 05:42 PM EDT / 2018.10.16 2142 UTC
Wind: from the WNW (300 degrees) at 5 MPH (4 KT):0
Visibility: 4 mile(s):0
Sky conditions: overcast
Weather: light rain; mist
Precipitation last hour: 0.09 inches
Temperature: 69.1 F (20.6 C)
Dew Point: 68.0 F (20.0 C)
Relative Humidity: 96%
Pressure (altimeter): 30.11 in. Hg (1019 hPa)
ob: KCEU 162142Z AUTO 30004KT 4SM -RA BR FEW022 SCT032 OVC044 21/20 A3011 RMK AO2 RAB21 P0009 T02060200
cycle: 21

Station Type Date Time Source
KCEU TAF UTC NOAA

Error!


Example: see airport list